Weather reports worldwide

Advertisment
Forli, Italy (16147): temperature & dewpoint: 29.03.2020 01:00:00 - 04.04.2020 01:00:00 (CEST)Forli, Italy (16147): wind speed: 29.03.2020 01:00:00 - 04.04.2020 01:00:00 (CEST)Forli, Italy (16147): wind direction: 29.03.2020 01:00:00 - 04.04.2020 01:00:00 (CEST)Forli, Italy (16147): reduced air pressure: 29.03.2020 01:00:00 - 04.04.2020 01:00:00 (CEST)Forli, Italy (16147): precipitation: 29.03.2020 01:00:00 - 04.04.2020 01:00:00 (CEST)
Date & Time tt [°C] td [°C] ff [km/h] ff [kn] dd ppp [hPa] rr [mm]
04.04.2020 01:00:00 - - - - - - -
04.04.2020 00:00:00 - - - - - - -
03.04.2020 23:00:00 7,2 0,8 3 2 SSW 1014,0 0,0
03.04.2020 22:00:00 8,8 1,7 - - - 1013,6 0,0
03.04.2020 21:00:00 10,7 2,0 - - - 1013,0 0,0
03.04.2020 20:00:00 11,7 1,3 3 2 E 1012,3 0,0
03.04.2020 19:00:00 13,1 -0,9 6 3 E 1012,0 0,0
03.04.2020 18:00:00 13,8 -2,2 8 4 ENE 1011,7 0,0
03.04.2020 17:00:00 13,9 -1,7 8 4 E 1011,6 0,0
03.04.2020 16:00:00 13,7 0,0 8 5 E 1011,6 0,0
03.04.2020 15:00:00 13,1 0,1 11 6 E 1012,0 0,0
03.04.2020 14:00:00 12,9 0,0 11 6 ENE 1012,4 0,0
03.04.2020 13:00:00 12,7 -0,9 6 4 NE 1012,6 0,0
03.04.2020 12:00:00 11,8 -1,4 7 4 E 1012,7 0,0
03.04.2020 11:00:00 10,8 -1,0 10 5 E 1012,6 0,0
03.04.2020 10:00:00 9,6 -2,4 3 2 ESE 1012,2 0,0
03.04.2020 09:00:00 7,1 - 0 0 SE - -
03.04.2020 08:00:00 3,7 -1,7 0 0 SSW 1011,6 0,0
03.04.2020 07:00:00 2,3 -2,4 3 1 SSW 1011,1 0,0
03.04.2020 06:00:00 2,2 -2,5 5 3 SW 1010,8 0,0
03.04.2020 05:00:00 2,8 -2,3 9 5 S 1010,6 0,0
03.04.2020 04:00:00 3,3 -2,0 1 1 WNW 1010,4 0,0
03.04.2020 03:00:00 3,6 -2,2 6 3 SW 1010,4 0,0
03.04.2020 02:00:00 4,2 -2,2 8 4 S 1010,6 0,0
03.04.2020 01:00:00 4,5 -2,4 7 4 S 1010,6 0,0
03.04.2020 00:00:00 5,2 -2,9 7 4 S 1010,7 0,0
02.04.2020 23:00:00 6,2 -3,2 5 3 SW 1010,6 0,0
02.04.2020 22:00:00 7,4 -4,4 - - - - -
02.04.2020 21:00:00 8,3 -5,5 8 4 SSE 1010,4 0,0
02.04.2020 20:00:00 9,3 -6,2 9 5 SE 1010,2 0,0
02.04.2020 19:00:00 10,6 -6,3 14 7 ESE 1010,2 0,0
02.04.2020 18:00:00 11,4 -4,7 14 7 E 1010,5 0,0
02.04.2020 17:00:00 11,6 -3,7 14 7 ENE 1010,7 0,0
02.04.2020 16:00:00 12,5 -4,2 10 5 ENE 1010,9 0,0
02.04.2020 15:00:00 12,2 -5,3 6 3 E 1011,7 0,0
02.04.2020 14:00:00 12,0 -5,5 4 2 ENE 1012,6 0,0
02.04.2020 13:00:00 10,8 -6,1 1 1 W 1013,3 0,0
02.04.2020 12:00:00 10,1 -5,9 6 3 N 1013,7 0,0
02.04.2020 11:00:00 9,4 -6,9 2 1 E 1014,0 0,0
02.04.2020 10:00:00 7,7 -8,0 3 2 NW 1014,1 0,0
02.04.2020 09:00:00 5,2 -5,8 3 2 SW 1014,1 0,0
02.04.2020 08:00:00 2,2 -7,2 8 4 S 1014,0 0,0
02.04.2020 07:00:00 1,0 -7,0 5 3 SSW 1014,0 0,0
02.04.2020 06:00:00 1,0 -6,8 7 4 SSW 1014,0 0,0
02.04.2020 05:00:00 1,3 -6,8 4 2 S 1014,4 0,0
02.04.2020 04:00:00 1,9 -6,9 5 3 S 1014,7 0,0
02.04.2020 03:00:00 1,9 -6,7 6 3 SSW 1015,2 0,0
02.04.2020 02:00:00 1,8 -6,0 5 3 SSW 1015,9 0,0
02.04.2020 01:00:00 2,4 -6,2 3 2 WSW 1016,3 0,0
02.04.2020 00:00:00 2,6 -6,8 10 5 SW 1016,6 0,0
01.04.2020 23:00:00 3,1 -6,6 8 5 SW 1016,7 0,0
01.04.2020 22:00:00 3,9 -5,8 5 3 SW 1016,8 0,0
01.04.2020 21:00:00 6,7 -8,5 4 2 ESE 1016,5 0,0
01.04.2020 20:00:00 7,6 -9,3 3 2 ENE 1016,2 0,0
01.04.2020 19:00:00 8,3 -10,1 6 3 NE 1016,5 0,0
01.04.2020 18:00:00 8,9 -9,6 8 4 ENE 1016,7 0,0
01.04.2020 17:00:00 9,0 -10,5 11 6 NE 1016,9 0,0
01.04.2020 16:00:00 9,0 -11,6 14 8 NNE 1017,3 0,0
01.04.2020 15:00:00 9,0 -9,5 15 8 ENE 1017,8 0,0
01.04.2020 14:00:00 8,5 -10,4 19 10 NNE 1018,4 0,0
01.04.2020 13:00:00 8,7 -10,3 16 9 NE 1019,1 0,0
01.04.2020 12:00:00 8,3 -9,6 18 10 NE 1019,6 0,0
01.04.2020 11:00:00 7,9 -10,0 20 11 NE 1019,8 0,0
01.04.2020 10:00:00 6,1 -3,0 5 3 NNW 1020,2 0,0
01.04.2020 09:00:00 3,2 -3,4 7 4 WNW 1020,2 0,0
01.04.2020 08:00:00 1,4 -4,5 5 3 W 1020,0 0,0
01.04.2020 07:00:00 1,0 -4,4 5 3 W 1019,7 0,0
01.04.2020 06:00:00 0,8 -4,2 8 4 WSW 1019,9 0,0
01.04.2020 05:00:00 1,2 -4,1 6 3 W 1019,8 0,0
01.04.2020 04:00:00 1,1 -3,6 5 3 WSW 1019,9 0,0
01.04.2020 03:00:00 1,5 -3,2 4 2 W 1020,1 0,0
01.04.2020 02:00:00 1,6 -3,3 6 3 WSW 1020,5 0,0
01.04.2020 01:00:00 2,5 -3,0 4 2 WSW 1020,6 0,0
01.04.2020 00:00:00 2,7 -3,2 4 2 WSW 1020,5 0,0
31.03.2020 23:00:00 3,8 - 4 2 WSW 1020,3 -
31.03.2020 22:00:00 4,1 -3,2 7 4 W 1019,7 0,0
31.03.2020 21:00:00 5,9 - 8 5 WSW 1019,1 0,0
31.03.2020 20:00:00 7,7 -7,2 1 1 N 1018,8 0,0
31.03.2020 19:00:00 8,2 -7,1 7 4 NE 1018,6 0,0
31.03.2020 18:00:00 8,3 -7,4 14 7 NNE 1018,1 0,0
31.03.2020 17:00:00 8,8 -7,0 19 10 NNE 1018,1 0,0
31.03.2020 16:00:00 9,0 -2,6 10 6 N 1018,4 0,0
31.03.2020 15:00:00 8,5 -3,1 10 5 NNE 1018,9 0,0
31.03.2020 14:00:00 8,5 -1,6 12 6 NE 1019,1 0,0
31.03.2020 13:00:00 8,4 -1,4 13 7 NNE 1019,1 0,0
31.03.2020 12:00:00 8,1 -0,7 12 6 ENE 1019,4 0,0
31.03.2020 11:00:00 7,0 2,1 8 4 ENE 1019,3 0,0
31.03.2020 10:00:00 6,2 3,5 3 2 NNW 1019,3 0,0
31.03.2020 09:00:00 5,6 3,6 8 4 NW 1018,8 0,0
31.03.2020 08:00:00 5,6 3,6 3 2 WNW 1018,5 -
31.03.2020 07:00:00 5,6 3,3 - - - - -
31.03.2020 06:00:00 5,4 3,2 1 1 SSE 1017,6 0,2
31.03.2020 05:00:00 5,4 3,2 7 4 NE 1017,5 0,8
31.03.2020 04:00:00 5,8 3,3 10 5 NNE 1017,4 0,0
31.03.2020 03:00:00 6,4 3,6 16 8 NNE 1017,2 0,0
31.03.2020 02:00:00 7,5 3,2 9 5 N 1016,5 0,2
31.03.2020 01:00:00 7,8 4,2 10 6 NNE 1015,9 0,8
31.03.2020 00:00:00 8,6 5,0 17 9 NNE 1015,2 0,8
30.03.2020 23:00:00 9,6 5,4 9 5 NE 1014,3 0,0
30.03.2020 22:00:00 9,8 6,1 8 4 NE 1013,6 0,8
30.03.2020 21:00:00 10,4 5,6 5 3 E 1013,3 0,2
30.03.2020 20:00:00 11,0 4,7 13 7 E 1012,4 0,0
30.03.2020 19:00:00 11,4 4,6 14 8 E 1011,9 0,0
30.03.2020 18:00:00 11,7 4,9 15 8 E 1011,5 0,0
30.03.2020 17:00:00 12,1 5,3 19 10 ENE 1011,0 0,0
30.03.2020 16:00:00 12,9 5,6 20 11 E 1010,9 0,0
30.03.2020 15:00:00 13,8 6,4 18 10 ENE 1011,0 0,0
30.03.2020 14:00:00 14,1 7,2 20 11 E 1010,8 0,0
30.03.2020 13:00:00 14,2 6,5 19 11 ENE 1010,9 0,0
30.03.2020 12:00:00 14,1 6,0 6 3 E 1011,1 0,0
30.03.2020 11:00:00 12,6 6,0 3 2 N 1011,2 0,0
30.03.2020 10:00:00 10,3 5,1 6 4 NW 1010,9 0,0
30.03.2020 09:00:00 9,1 4,1 3 2 WNW 1010,2 0,0
30.03.2020 08:00:00 6,9 3,5 4 2 WSW 1009,7 0,0
30.03.2020 07:00:00 5,8 2,8 3 1 SW 1009,2 0,0
30.03.2020 06:00:00 7,7 3,5 1 0 S 1008,6 0,0
30.03.2020 05:00:00 8,1 3,6 5 3 SSE 1008,4 0,0
30.03.2020 04:00:00 8,4 3,6 5 3 S 1008,5 0,0
30.03.2020 03:00:00 8,6 3,8 4 2 S 1008,8 0,0
30.03.2020 02:00:00 9,3 3,9 1 1 SSE 1009,0 0,0
30.03.2020 01:00:00 9,6 4,2 - - - 1009,0 0,0
30.03.2020 00:00:00 9,8 4,4 3 2 S 1009,3 0,0
29.03.2020 23:00:00 10,5 4,6 1 1 S 1009,3 0,0
29.03.2020 22:00:00 11,8 5,7 4 2 S 1009,0 0,0
29.03.2020 21:00:00 12,9 5,6 0 0 SSE 1008,9 0,0
29.03.2020 20:00:00 13,7 5,1 5 3 ESE 1008,5 0,0
29.03.2020 19:00:00 15,8 4,2 10 5 E 1008,1 0,0
29.03.2020 18:00:00 17,1 2,3 15 8 E 1008,0 0,0
29.03.2020 17:00:00 17,8 1,3 16 9 E 1008,1 0,0
29.03.2020 16:00:00 18,6 2,0 10 5 E 1008,4 0,0
29.03.2020 15:00:00 18,0 3,5 14 7 ENE 1009,0 0,0
29.03.2020 14:00:00 18,4 3,4 8 4 E 1009,5 0,0
29.03.2020 13:00:00 17,6 2,3 5 3 E 1010,0 0,0
29.03.2020 12:00:00 16,6 2,2 5 3 ENE 1010,4 0,0
29.03.2020 11:00:00 15,2 3,0 3 2 ENE 1010,7 0,0
29.03.2020 10:00:00 12,9 3,5 1 1 S 1010,9 0,0
29.03.2020 09:00:00 9,7 2,8 5 3 S 1010,7 0,0
29.03.2020 08:00:00 7,4 1,9 8 4 S 1010,9 0,0
29.03.2020 07:00:00 6,9 1,8 8 5 S 1010,8 0,0
29.03.2020 06:00:00 7,2 2,1 9 5 S 1010,9 0,0
29.03.2020 05:00:00 7,3 2,2 8 4 S 1011,1 0,0
29.03.2020 04:00:00 8,2 2,9 9 5 S 1011,6 0,0
29.03.2020 03:00:00 9,1 3,1 8 4 SSW 1011,8 0,0
29.03.2020 02:00:00 9,1 3,1 8 4 SSW 1011,8 0,0
29.03.2020 01:00:00 - - - - - - -

tt = temperature
td = dewpoint
ff = wind speed
dd = wind direction
ppp = reduced air pressure
rr = precipitation

Next stations